Whitehills, United Kingdom
Current Conditions -  °F | °C
As of 4:50 PM on Friday 19 Dec 2014 (Local Time) from EGQS Reporting Station
Scattered Clouds Scattered Clouds  
Wind Chill: 25°   Ceiling: Unl
Heat Index: 36°   Visibility: 6mi
Dew Point: 32°   Wind: 17mph
Humidity: 87%   Direction: 250°WSW
Pressure: 29.5"   Gusts: NA
Location:  57.67°N, 2.58°W
Report Text: EGQS 191650Z 25015KT 9999 FEW030CB SCT050 02/00 Q0999 BLU
Loading
Personal Weather Stations






























Interactive Weather Map New forecast layout! Learn more

10-Day Weather Forecast

Advertisements
Track Severe Weather on mobile